sensor_id;sensor_type;location;lat;lon;timestamp;P1;durP1;ratioP1;P2;durP2;ratioP2
59233;SDS011;60776;51.702;7.462;2023-09-07T00:00:52;4.82;;;3.42;;
59233;SDS011;60776;51.702;7.462;2023-09-07T00:03:18;2.97;;;2.78;;
59233;SDS011;60776;51.702;7.462;2023-09-07T00:05:44;3.65;;;3.22;;
59233;SDS011;60776;51.702;7.462;2023-09-07T00:08:10;3.00;;;2.70;;
59233;SDS011;60776;51.702;7.462;2023-09-07T00:10:35;3.13;;;2.80;;
59233;SDS011;60776;51.702;7.462;2023-09-07T00:13:02;4.70;;;4.30;;
59233;SDS011;60776;51.702;7.462;2023-09-07T00:15:28;4.55;;;2.60;;
59233;SDS011;60776;51.702;7.462;2023-09-07T00:17:55;4.28;;;3.58;;
59233;SDS011;60776;51.702;7.462;2023-09-07T00:20:21;3.35;;;2.75;;
59233;SDS011;60776;51.702;7.462;2023-09-07T00:22:50;3.67;;;3.15;;
59233;SDS011;60776;51.702;7.462;2023-09-07T00:25:25;2.90;;;2.70;;
59233;SDS011;60776;51.702;7.462;2023-09-07T00:27:56;4.28;;;3.10;;
59233;SDS011;60776;51.702;7.462;2023-09-07T00:30:24;3.50;;;2.45;;
59233;SDS011;60776;51.702;7.462;2023-09-07T00:33:01;3.15;;;2.95;;
59233;SDS011;60776;51.702;7.462;2023-09-07T00:35:27;4.00;;;3.60;;
59233;SDS011;60776;51.702;7.462;2023-09-07T00:38:07;5.55;;;3.63;;
59233;SDS011;60776;51.702;7.462;2023-09-07T00:40:35;3.97;;;3.40;;
59233;SDS011;60776;51.702;7.462;2023-09-07T00:43:01;3.88;;;3.58;;
59233;SDS011;60776;51.702;7.462;2023-09-07T00:45:39;3.35;;;2.83;;
59233;SDS011;60776;51.702;7.462;2023-09-07T00:48:12;3.60;;;3.30;;
59233;SDS011;60776;51.702;7.462;2023-09-07T00:50:43;2.78;;;2.58;;
59233;SDS011;60776;51.702;7.462;2023-09-07T00:53:10;3.75;;;3.30;;
59233;SDS011;60776;51.702;7.462;2023-09-07T00:55:46;3.10;;;2.88;;
59233;SDS011;60776;51.702;7.462;2023-09-07T00:58:15;6.47;;;3.75;;
59233;SDS011;60776;51.702;7.462;2023-09-07T01:00:41;3.55;;;3.25;;
59233;SDS011;60776;51.702;7.462;2023-09-07T01:03:06;4.50;;;3.75;;
59233;SDS011;60776;51.702;7.462;2023-09-07T01:05:34;4.40;;;4.00;;
59233;SDS011;60776;51.702;7.462;2023-09-07T01:08:26;4.47;;;3.70;;
59233;SDS011;60776;51.702;7.462;2023-09-07T01:10:56;3.00;;;2.80;;
59233;SDS011;60776;51.702;7.462;2023-09-07T01:13:25;2.80;;;2.60;;
59233;SDS011;60776;51.702;7.462;2023-09-07T01:15:53;7.47;;;3.85;;
59233;SDS011;60776;51.702;7.462;2023-09-07T01:18:21;7.03;;;3.45;;
59233;SDS011;60776;51.702;7.462;2023-09-07T01:20:58;3.88;;;3.03;;
59233;SDS011;60776;51.702;7.462;2023-09-07T01:23:28;3.60;;;3.30;;
59233;SDS011;60776;51.702;7.462;2023-09-07T01:25:54;4.20;;;3.80;;
59233;SDS011;60776;51.702;7.462;2023-09-07T01:28:20;3.38;;;3.08;;
59233;SDS011;60776;51.702;7.462;2023-09-07T01:30:49;3.10;;;2.85;;
59233;SDS011;60776;51.702;7.462;2023-09-07T01:33:16;4.38;;;3.97;;
59233;SDS011;60776;51.702;7.462;2023-09-07T01:35:53;4.30;;;3.88;;
59233;SDS011;60776;51.702;7.462;2023-09-07T01:38:19;4.22;;;3.85;;
59233;SDS011;60776;51.702;7.462;2023-09-07T01:40:56;3.78;;;3.47;;
59233;SDS011;60776;51.702;7.462;2023-09-07T01:43:24;3.53;;;3.22;;
59233;SDS011;60776;51.702;7.462;2023-09-07T01:45:52;3.55;;;3.25;;
59233;SDS011;60776;51.702;7.462;2023-09-07T01:48:34;4.18;;;3.63;;
59233;SDS011;60776;51.702;7.462;2023-09-07T01:51:00;3.78;;;3.40;;
59233;SDS011;60776;51.702;7.462;2023-09-07T01:53:25;3.53;;;3.22;;
59233;SDS011;60776;51.702;7.462;2023-09-07T01:56:06;3.70;;;3.22;;
59233;SDS011;60776;51.702;7.462;2023-09-07T01:58:34;5.15;;;3.53;;
59233;SDS011;60776;51.702;7.462;2023-09-07T02:00:59;3.80;;;3.50;;
59233;SDS011;60776;51.702;7.462;2023-09-07T02:03:25;4.28;;;3.75;;
59233;SDS011;60776;51.702;7.462;2023-09-07T02:05:54;4.65;;;3.30;;
59233;SDS011;60776;51.702;7.462;2023-09-07T02:08:20;3.85;;;3.30;;
59233;SDS011;60776;51.702;7.462;2023-09-07T02:10:48;3.63;;;3.33;;
59233;SDS011;60776;51.702;7.462;2023-09-07T02:13:13;4.00;;;3.60;;
59233;SDS011;60776;51.702;7.462;2023-09-07T02:15:41;4.63;;;3.55;;
59233;SDS011;60776;51.702;7.462;2023-09-07T02:18:17;4.40;;;3.95;;
59233;SDS011;60776;51.702;7.462;2023-09-07T02:20:50;3.83;;;3.47;;
59233;SDS011;60776;51.702;7.462;2023-09-07T02:23:18;3.60;;;3.30;;
59233;SDS011;60776;51.702;7.462;2023-09-07T02:25:46;6.82;;;3.53;;
59233;SDS011;60776;51.702;7.462;2023-09-07T02:28:14;4.43;;;4.03;;
59233;SDS011;60776;51.702;7.462;2023-09-07T02:30:40;4.20;;;3.75;;
59233;SDS011;60776;51.702;7.462;2023-09-07T02:33:08;3.55;;;3.22;;
59233;SDS011;60776;51.702;7.462;2023-09-07T02:35:36;3.63;;;3.33;;
59233;SDS011;60776;51.702;7.462;2023-09-07T02:38:05;3.55;;;3.25;;
59233;SDS011;60776;51.702;7.462;2023-09-07T02:40:31;3.55;;;3.25;;
59233;SDS011;60776;51.702;7.462;2023-09-07T02:42:59;4.03;;;3.72;;
59233;SDS011;60776;51.702;7.462;2023-09-07T02:45:24;3.63;;;3.33;;
59233;SDS011;60776;51.702;7.462;2023-09-07T02:47:50;3.20;;;2.88;;
59233;SDS011;60776;51.702;7.462;2023-09-07T02:50:17;3.85;;;3.55;;
59233;SDS011;60776;51.702;7.462;2023-09-07T02:52:49;4.45;;;3.20;;
59233;SDS011;60776;51.702;7.462;2023-09-07T02:55:14;4.40;;;3.38;;
59233;SDS011;60776;51.702;7.462;2023-09-07T02:57:40;4.03;;;3.63;;
59233;SDS011;60776;51.702;7.462;2023-09-07T03:00:06;3.55;;;3.35;;
59233;SDS011;60776;51.702;7.462;2023-09-07T03:02:36;4.10;;;3.42;;
59233;SDS011;60776;51.702;7.462;2023-09-07T03:05:12;4.38;;;3.97;;
59233;SDS011;60776;51.702;7.462;2023-09-07T03:07:47;3.97;;;3.67;;
59233;SDS011;60776;51.702;7.462;2023-09-07T03:10:15;4.43;;;4.03;;
59233;SDS011;60776;51.702;7.462;2023-09-07T03:12:48;5.00;;;4.32;;
59233;SDS011;60776;51.702;7.462;2023-09-07T03:15:15;5.50;;;3.47;;
59233;SDS011;60776;51.702;7.462;2023-09-07T03:17:43;4.10;;;3.80;;
59233;SDS011;60776;51.702;7.462;2023-09-07T03:20:09;6.00;;;5.40;;
59233;SDS011;60776;51.702;7.462;2023-09-07T03:22:40;4.65;;;4.00;;
59233;SDS011;60776;51.702;7.462;2023-09-07T03:25:09;5.40;;;4.47;;
59233;SDS011;60776;51.702;7.462;2023-09-07T03:27:38;5.13;;;4.65;;
59233;SDS011;60776;51.702;7.462;2023-09-07T03:30:04;5.28;;;3.92;;
59233;SDS011;60776;51.702;7.462;2023-09-07T03:32:34;4.05;;;3.65;;
59233;SDS011;60776;51.702;7.462;2023-09-07T03:35:00;4.70;;;3.88;;
59233;SDS011;60776;51.702;7.462;2023-09-07T03:37:26;7.05;;;4.80;;
59233;SDS011;60776;51.702;7.462;2023-09-07T03:40:03;3.92;;;3.55;;
59233;SDS011;60776;51.702;7.462;2023-09-07T03:42:32;4.18;;;3.55;;
59233;SDS011;60776;51.702;7.462;2023-09-07T03:44:58;4.15;;;3.65;;
59233;SDS011;60776;51.702;7.462;2023-09-07T03:47:24;4.47;;;4.07;;
59233;SDS011;60776;51.702;7.462;2023-09-07T03:49:53;5.40;;;4.63;;
59233;SDS011;60776;51.702;7.462;2023-09-07T03:52:20;5.15;;;4.22;;
59233;SDS011;60776;51.702;7.462;2023-09-07T03:54:59;4.43;;;4.03;;
59233;SDS011;60776;51.702;7.462;2023-09-07T03:57:25;4.15;;;3.78;;
59233;SDS011;60776;51.702;7.462;2023-09-07T03:59:52;3.88;;;3.58;;
59233;SDS011;60776;51.702;7.462;2023-09-07T04:02:20;4.10;;;3.70;;
59233;SDS011;60776;51.702;7.462;2023-09-07T04:04:50;4.90;;;4.50;;
59233;SDS011;60776;51.702;7.462;2023-09-07T04:07:16;4.38;;;3.97;;
59233;SDS011;60776;51.702;7.462;2023-09-07T04:09:42;4.10;;;3.70;;
59233;SDS011;60776;51.702;7.462;2023-09-07T04:12:14;5.75;;;5.10;;
59233;SDS011;60776;51.702;7.462;2023-09-07T04:14:44;6.40;;;5.80;;
59233;SDS011;60776;51.702;7.462;2023-09-07T04:17:10;4.65;;;3.55;;
59233;SDS011;60776;51.702;7.462;2023-09-07T04:19:38;5.30;;;4.80;;
59233;SDS011;60776;51.702;7.462;2023-09-07T04:22:04;6.03;;;4.35;;
59233;SDS011;60776;51.702;7.462;2023-09-07T04:24:32;4.50;;;4.10;;
59233;SDS011;60776;51.702;7.462;2023-09-07T04:26:58;4.88;;;4.40;;
59233;SDS011;60776;51.702;7.462;2023-09-07T04:29:28;5.03;;;4.53;;
59233;SDS011;60776;51.702;7.462;2023-09-07T04:31:54;5.05;;;4.65;;
59233;SDS011;60776;51.702;7.462;2023-09-07T04:34:20;4.82;;;4.43;;
59233;SDS011;60776;51.702;7.462;2023-09-07T04:36:47;4.53;;;4.13;;
59233;SDS011;60776;51.702;7.462;2023-09-07T04:39:12;4.28;;;3.88;;
59233;SDS011;60776;51.702;7.462;2023-09-07T04:41:39;4.63;;;4.22;;
59233;SDS011;60776;51.702;7.462;2023-09-07T04:44:05;5.18;;;4.68;;
59233;SDS011;60776;51.702;7.462;2023-09-07T04:46:41;5.57;;;5.07;;
59233;SDS011;60776;51.702;7.462;2023-09-07T04:49:07;6.57;;;5.47;;
59233;SDS011;60776;51.702;7.462;2023-09-07T04:51:35;4.93;;;4.53;;
59233;SDS011;60776;51.702;7.462;2023-09-07T04:54:15;5.50;;;5.10;;
59233;SDS011;60776;51.702;7.462;2023-09-07T04:56:41;6.55;;;5.80;;
59233;SDS011;60776;51.702;7.462;2023-09-07T04:59:06;5.40;;;4.97;;
59233;SDS011;60776;51.702;7.462;2023-09-07T05:01:32;4.80;;;4.28;;
59233;SDS011;60776;51.702;7.462;2023-09-07T05:03:58;4.70;;;4.40;;
59233;SDS011;60776;51.702;7.462;2023-09-07T05:06:28;6.72;;;6.07;;
59233;SDS011;60776;51.702;7.462;2023-09-07T05:09:07;6.85;;;6.07;;
59233;SDS011;60776;51.702;7.462;2023-09-07T05:11:40;6.57;;;5.97;;
59233;SDS011;60776;51.702;7.462;2023-09-07T05:14:08;5.80;;;5.30;;
59233;SDS011;60776;51.702;7.462;2023-09-07T05:16:33;6.70;;;5.75;;
59233;SDS011;60776;51.702;7.462;2023-09-07T05:18:59;7.20;;;6.50;;
59233;SDS011;60776;51.702;7.462;2023-09-07T05:21:27;5.40;;;4.90;;
59233;SDS011;60776;51.702;7.462;2023-09-07T05:23:53;6.18;;;5.68;;
59233;SDS011;60776;51.702;7.462;2023-09-07T05:26:21;7.30;;;5.88;;
59233;SDS011;60776;51.702;7.462;2023-09-07T05:28:49;6.00;;;5.50;;
59233;SDS011;60776;51.702;7.462;2023-09-07T05:31:14;5.15;;;4.68;;
59233;SDS011;60776;51.702;7.462;2023-09-07T05:33:43;4.88;;;4.47;;
59233;SDS011;60776;51.702;7.462;2023-09-07T05:36:08;5.47;;;4.97;;
59233;SDS011;60776;51.702;7.462;2023-09-07T05:38:34;5.30;;;4.82;;
59233;SDS011;60776;51.702;7.462;2023-09-07T05:41:02;6.53;;;5.00;;
59233;SDS011;60776;51.702;7.462;2023-09-07T05:43:28;5.07;;;4.60;;
59233;SDS011;60776;51.702;7.462;2023-09-07T05:45:56;4.70;;;4.30;;
59233;SDS011;60776;51.702;7.462;2023-09-07T05:48:22;5.10;;;4.60;;
59233;SDS011;60776;51.702;7.462;2023-09-07T05:50:53;5.10;;;4.70;;
59233;SDS011;60776;51.702;7.462;2023-09-07T05:53:18;6.93;;;6.00;;
59233;SDS011;60776;51.702;7.462;2023-09-07T05:55:47;5.85;;;5.00;;
59233;SDS011;60776;51.702;7.462;2023-09-07T05:58:12;4.43;;;4.13;;
59233;SDS011;60776;51.702;7.462;2023-09-07T06:00:50;4.65;;;4.25;;
59233;SDS011;60776;51.702;7.462;2023-09-07T06:03:16;4.53;;;4.15;;
59233;SDS011;60776;51.702;7.462;2023-09-07T06:05:50;4.28;;;3.97;;
59233;SDS011;60776;51.702;7.462;2023-09-07T06:08:17;4.85;;;4.45;;
59233;SDS011;60776;51.702;7.462;2023-09-07T06:10:43;6.13;;;4.60;;
59233;SDS011;60776;51.702;7.462;2023-09-07T06:13:11;4.88;;;4.47;;
59233;SDS011;60776;51.702;7.462;2023-09-07T06:15:37;4.50;;;4.10;;
59233;SDS011;60776;51.702;7.462;2023-09-07T06:18:19;7.85;;;4.65;;
59233;SDS011;60776;51.702;7.462;2023-09-07T06:20:47;6.70;;;4.05;;
59233;SDS011;60776;51.702;7.462;2023-09-07T06:23:12;5.82;;;4.60;;
59233;SDS011;60776;51.702;7.462;2023-09-07T06:25:45;4.53;;;4.13;;
59233;SDS011;60776;51.702;7.462;2023-09-07T06:28:18;4.65;;;4.25;;
59233;SDS011;60776;51.702;7.462;2023-09-07T06:30:49;4.40;;;3.80;;
59233;SDS011;60776;51.702;7.462;2023-09-07T06:33:17;4.55;;;4.15;;
59233;SDS011;60776;51.702;7.462;2023-09-07T06:35:48;4.97;;;4.07;;
59233;SDS011;60776;51.702;7.462;2023-09-07T06:38:13;5.22;;;3.97;;
59233;SDS011;60776;51.702;7.462;2023-09-07T06:40:47;4.10;;;3.70;;
59233;SDS011;60776;51.702;7.462;2023-09-07T06:43:15;3.83;;;3.53;;
59233;SDS011;60776;51.702;7.462;2023-09-07T06:45:49;5.13;;;4.00;;
59233;SDS011;60776;51.702;7.462;2023-09-07T06:48:17;4.70;;;4.10;;
59233;SDS011;60776;51.702;7.462;2023-09-07T06:50:43;4.38;;;3.95;;
59233;SDS011;60776;51.702;7.462;2023-09-07T06:53:18;4.53;;;3.53;;
59233;SDS011;60776;51.702;7.462;2023-09-07T06:55:44;4.20;;;3.80;;
59233;SDS011;60776;51.702;7.462;2023-09-07T06:58:09;4.32;;;3.92;;
59233;SDS011;60776;51.702;7.462;2023-09-07T07:00:35;5.18;;;3.92;;
59233;SDS011;60776;51.702;7.462;2023-09-07T07:03:01;4.50;;;4.10;;
59233;SDS011;60776;51.702;7.462;2023-09-07T07:05:27;5.18;;;4.10;;
59233;SDS011;60776;51.702;7.462;2023-09-07T07:07:54;4.28;;;3.95;;
59233;SDS011;60776;51.702;7.462;2023-09-07T07:10:22;4.05;;;3.67;;
59233;SDS011;60776;51.702;7.462;2023-09-07T07:12:48;8.93;;;4.35;;
59233;SDS011;60776;51.702;7.462;2023-09-07T07:15:14;4.47;;;3.70;;
59233;SDS011;60776;51.702;7.462;2023-09-07T07:17:39;5.75;;;4.30;;
59233;SDS011;60776;51.702;7.462;2023-09-07T07:20:05;4.85;;;3.70;;
59233;SDS011;60776;51.702;7.462;2023-09-07T07:22:31;7.43;;;4.20;;
59233;SDS011;60776;51.702;7.462;2023-09-07T07:25:00;4.60;;;4.20;;
59233;SDS011;60776;51.702;7.462;2023-09-07T07:27:30;4.30;;;3.97;;
59233;SDS011;60776;51.702;7.462;2023-09-07T07:29:56;6.18;;;4.05;;
59233;SDS011;60776;51.702;7.462;2023-09-07T07:32:22;5.63;;;4.28;;
59233;SDS011;60776;51.702;7.462;2023-09-07T07:34:47;7.20;;;4.70;;
59233;SDS011;60776;51.702;7.462;2023-09-07T07:37:14;4.28;;;3.97;;
59233;SDS011;60776;51.702;7.462;2023-09-07T07:39:40;4.90;;;4.13;;
59233;SDS011;60776;51.702;7.462;2023-09-07T07:42:05;7.05;;;4.30;;
59233;SDS011;60776;51.702;7.462;2023-09-07T07:44:31;5.13;;;4.07;;
59233;SDS011;60776;51.702;7.462;2023-09-07T07:46:57;5.80;;;4.63;;
59233;SDS011;60776;51.702;7.462;2023-09-07T07:49:22;7.00;;;4.10;;
59233;SDS011;60776;51.702;7.462;2023-09-07T07:51:48;4.38;;;4.07;;
59233;SDS011;60776;51.702;7.462;2023-09-07T07:54:14;4.65;;;4.25;;
59233;SDS011;60776;51.702;7.462;2023-09-07T07:56:40;5.35;;;4.60;;
59233;SDS011;60776;51.702;7.462;2023-09-07T07:59:06;5.57;;;4.10;;
59233;SDS011;60776;51.702;7.462;2023-09-07T08:01:32;5.45;;;3.83;;
59233;SDS011;60776;51.702;7.462;2023-09-07T08:03:57;4.28;;;3.88;;
59233;SDS011;60776;51.702;7.462;2023-09-07T08:06:23;4.20;;;3.53;;
59233;SDS011;60776;51.702;7.462;2023-09-07T08:08:48;4.65;;;4.05;;
59233;SDS011;60776;51.702;7.462;2023-09-07T08:11:14;4.30;;;3.95;;
59233;SDS011;60776;51.702;7.462;2023-09-07T08:13:40;4.63;;;4.15;;
59233;SDS011;60776;51.702;7.462;2023-09-07T08:16:06;5.15;;;4.45;;
59233;SDS011;60776;51.702;7.462;2023-09-07T08:18:34;5.03;;;3.28;;
59233;SDS011;60776;51.702;7.462;2023-09-07T08:21:02;5.47;;;4.13;;
59233;SDS011;60776;51.702;7.462;2023-09-07T08:23:28;4.57;;;4.07;;
59233;SDS011;60776;51.702;7.462;2023-09-07T08:25:53;4.63;;;3.80;;
59233;SDS011;60776;51.702;7.462;2023-09-07T08:28:19;5.45;;;3.70;;
59233;SDS011;60776;51.702;7.462;2023-09-07T08:30:48;5.22;;;4.00;;
59233;SDS011;60776;51.702;7.462;2023-09-07T08:33:23;4.43;;;3.60;;
59233;SDS011;60776;51.702;7.462;2023-09-07T08:35:53;4.43;;;3.78;;
59233;SDS011;60776;51.702;7.462;2023-09-07T08:38:20;3.63;;;3.33;;
59233;SDS011;60776;51.702;7.462;2023-09-07T08:40:50;4.65;;;3.40;;
59233;SDS011;60776;51.702;7.462;2023-09-07T08:43:16;5.40;;;3.75;;
59233;SDS011;60776;51.702;7.462;2023-09-07T08:45:46;4.90;;;3.85;;
59233;SDS011;60776;51.702;7.462;2023-09-07T08:48:24;4.20;;;3.75;;
59233;SDS011;60776;51.702;7.462;2023-09-07T08:50:52;4.90;;;3.90;;
59233;SDS011;60776;51.702;7.462;2023-09-07T08:53:21;5.88;;;3.58;;
59233;SDS011;60776;51.702;7.462;2023-09-07T08:55:47;7.35;;;4.25;;
59233;SDS011;60776;51.702;7.462;2023-09-07T08:58:13;4.72;;;3.70;;
59233;SDS011;60776;51.702;7.462;2023-09-07T09:00:39;4.40;;;4.00;;
59233;SDS011;60776;51.702;7.462;2023-09-07T09:03:08;6.68;;;4.10;;
59233;SDS011;60776;51.702;7.462;2023-09-07T09:05:34;5.75;;;3.83;;
59233;SDS011;60776;51.702;7.462;2023-09-07T09:08:03;5.65;;;3.33;;
59233;SDS011;60776;51.702;7.462;2023-09-07T09:10:29;3.92;;;3.42;;
59233;SDS011;60776;51.702;7.462;2023-09-07T09:12:55;3.92;;;3.28;;
59233;SDS011;60776;51.702;7.462;2023-09-07T09:15:22;3.85;;;3.13;;
59233;SDS011;60776;51.702;7.462;2023-09-07T09:17:47;3.92;;;3.63;;
59233;SDS011;60776;51.702;7.462;2023-09-07T09:20:20;7.57;;;3.70;;
59233;SDS011;60776;51.702;7.462;2023-09-07T09:22:50;4.05;;;3.65;;
59233;SDS011;60776;51.702;7.462;2023-09-07T09:25:20;4.25;;;3.63;;
59233;SDS011;60776;51.702;7.462;2023-09-07T09:27:46;4.65;;;3.90;;
59233;SDS011;60776;51.702;7.462;2023-09-07T09:30:13;4.78;;;3.40;;
59233;SDS011;60776;51.702;7.462;2023-09-07T09:32:41;4.53;;;3.17;;
59233;SDS011;60776;51.702;7.462;2023-09-07T09:35:07;3.50;;;3.30;;
59233;SDS011;60776;51.702;7.462;2023-09-07T09:37:34;3.30;;;3.10;;
59233;SDS011;60776;51.702;7.462;2023-09-07T09:40:10;6.72;;;3.20;;
59233;SDS011;60776;51.702;7.462;2023-09-07T09:42:36;4.63;;;3.00;;
59233;SDS011;60776;51.702;7.462;2023-09-07T09:45:03;5.47;;;3.03;;
59233;SDS011;60776;51.702;7.462;2023-09-07T09:47:32;3.28;;;2.97;;
59233;SDS011;60776;51.702;7.462;2023-09-07T09:50:00;5.53;;;3.20;;
59233;SDS011;60776;51.702;7.462;2023-09-07T09:52:31;3.60;;;3.30;;
59233;SDS011;60776;51.702;7.462;2023-09-07T09:54:58;3.38;;;3.08;;
59233;SDS011;60776;51.702;7.462;2023-09-07T09:57:25;3.25;;;2.95;;
59233;SDS011;60776;51.702;7.462;2023-09-07T09:59:54;3.25;;;2.97;;
59233;SDS011;60776;51.702;7.462;2023-09-07T10:02:20;2.97;;;2.50;;
59233;SDS011;60776;51.702;7.462;2023-09-07T10:04:46;3.25;;;2.95;;
59233;SDS011;60776;51.702;7.462;2023-09-07T10:07:13;4.20;;;3.10;;
59233;SDS011;60776;51.702;7.462;2023-09-07T10:09:38;5.75;;;3.28;;
59233;SDS011;60776;51.702;7.462;2023-09-07T10:12:04;3.65;;;3.10;;
59233;SDS011;60776;51.702;7.462;2023-09-07T10:14:40;5.43;;;3.03;;
59233;SDS011;60776;51.702;7.462;2023-09-07T10:17:06;3.33;;;3.03;;
59233;SDS011;60776;51.702;7.462;2023-09-07T10:19:34;4.80;;;3.08;;
59233;SDS011;60776;51.702;7.462;2023-09-07T10:22:02;3.90;;;2.85;;
59233;SDS011;60776;51.702;7.462;2023-09-07T10:24:34;5.53;;;2.88;;
59233;SDS011;60776;51.702;7.462;2023-09-07T10:27:05;4.07;;;3.22;;
59233;SDS011;60776;51.702;7.462;2023-09-07T10:29:42;3.35;;;3.08;;
59233;SDS011;60776;51.702;7.462;2023-09-07T10:32:08;6.15;;;3.13;;
59233;SDS011;60776;51.702;7.462;2023-09-07T10:34:35;3.53;;;2.85;;
59233;SDS011;60776;51.702;7.462;2023-09-07T10:37:08;3.47;;;2.70;;
59233;SDS011;60776;51.702;7.462;2023-09-07T10:39:36;4.05;;;3.10;;
59233;SDS011;60776;51.702;7.462;2023-09-07T10:42:09;3.25;;;3.05;;
59233;SDS011;60776;51.702;7.462;2023-09-07T10:44:46;3.40;;;2.75;;
59233;SDS011;60776;51.702;7.462;2023-09-07T10:47:11;3.75;;;3.45;;
59233;SDS011;60776;51.702;7.462;2023-09-07T10:49:37;4.05;;;3.00;;
59233;SDS011;60776;51.702;7.462;2023-09-07T10:52:04;3.08;;;2.75;;
59233;SDS011;60776;51.702;7.462;2023-09-07T10:54:30;2.92;;;2.72;;
59233;SDS011;60776;51.702;7.462;2023-09-07T10:56:55;3.90;;;3.35;;
59233;SDS011;60776;51.702;7.462;2023-09-07T10:59:23;3.35;;;2.72;;
59233;SDS011;60776;51.702;7.462;2023-09-07T11:01:52;3.30;;;3.00;;
59233;SDS011;60776;51.702;7.462;2023-09-07T11:04:18;3.88;;;2.72;;
59233;SDS011;60776;51.702;7.462;2023-09-07T11:06:45;3.20;;;2.90;;
59233;SDS011;60776;51.702;7.462;2023-09-07T11:09:11;3.25;;;2.95;;
59233;SDS011;60776;51.702;7.462;2023-09-07T11:11:36;5.15;;;3.00;;
59233;SDS011;60776;51.702;7.462;2023-09-07T11:14:03;3.63;;;3.10;;
59233;SDS011;60776;51.702;7.462;2023-09-07T11:16:29;4.30;;;3.75;;
59233;SDS011;60776;51.702;7.462;2023-09-07T11:18:57;3.65;;;3.22;;
59233;SDS011;60776;51.702;7.462;2023-09-07T11:21:30;5.85;;;3.10;;
59233;SDS011;60776;51.702;7.462;2023-09-07T11:23:57;3.75;;;3.25;;
59233;SDS011;60776;51.702;7.462;2023-09-07T11:26:23;3.05;;;2.85;;
59233;SDS011;60776;51.702;7.462;2023-09-07T11:28:49;3.45;;;3.15;;
59233;SDS011;60776;51.702;7.462;2023-09-07T11:31:18;4.13;;;2.97;;
59233;SDS011;60776;51.702;7.462;2023-09-07T11:33:45;2.90;;;2.60;;
59233;SDS011;60776;51.702;7.462;2023-09-07T11:36:12;2.90;;;2.70;;
59233;SDS011;60776;51.702;7.462;2023-09-07T11:38:38;3.22;;;3.03;;
59233;SDS011;60776;51.702;7.462;2023-09-07T11:41:07;3.47;;;3.17;;
59233;SDS011;60776;51.702;7.462;2023-09-07T11:43:33;4.03;;;3.28;;
59233;SDS011;60776;51.702;7.462;2023-09-07T11:45:58;3.13;;;2.92;;
59233;SDS011;60776;51.702;7.462;2023-09-07T11:48:25;3.47;;;3.20;;
59233;SDS011;60776;51.702;7.462;2023-09-07T11:50:51;3.10;;;2.80;;
59233;SDS011;60776;51.702;7.462;2023-09-07T11:53:17;3.40;;;3.15;;
59233;SDS011;60776;51.702;7.462;2023-09-07T11:55:42;4.05;;;3.05;;
59233;SDS011;60776;51.702;7.462;2023-09-07T11:58:08;4.70;;;3.20;;
59233;SDS011;60776;51.702;7.462;2023-09-07T12:00:34;3.80;;;3.30;;
59233;SDS011;60776;51.702;7.462;2023-09-07T12:02:59;3.28;;;3.00;;
59233;SDS011;60776;51.702;7.462;2023-09-07T12:05:25;3.30;;;3.10;;
59233;SDS011;60776;51.702;7.462;2023-09-07T12:07:51;4.40;;;3.30;;
59233;SDS011;60776;51.702;7.462;2023-09-07T12:10:16;3.08;;;2.88;;
59233;SDS011;60776;51.702;7.462;2023-09-07T12:12:42;3.15;;;2.90;;
59233;SDS011;60776;51.702;7.462;2023-09-07T12:15:09;3.38;;;3.05;;
59233;SDS011;60776;51.702;7.462;2023-09-07T12:17:38;3.65;;;3.00;;
59233;SDS011;60776;51.702;7.462;2023-09-07T12:20:04;3.40;;;3.10;;
59233;SDS011;60776;51.702;7.462;2023-09-07T12:22:34;4.00;;;3.08;;
59233;SDS011;60776;51.702;7.462;2023-09-07T12:25:01;3.85;;;3.45;;
59233;SDS011;60776;51.702;7.462;2023-09-07T12:27:26;5.32;;;3.15;;
59233;SDS011;60776;51.702;7.462;2023-09-07T12:29:52;3.65;;;2.72;;
59233;SDS011;60776;51.702;7.462;2023-09-07T12:32:18;3.58;;;3.30;;
59233;SDS011;60776;51.702;7.462;2023-09-07T12:34:43;3.92;;;3.10;;
59233;SDS011;60776;51.702;7.462;2023-09-07T12:37:09;3.28;;;2.97;;
59233;SDS011;60776;51.702;7.462;2023-09-07T12:39:34;3.88;;;3.47;;
59233;SDS011;60776;51.702;7.462;2023-09-07T12:42:00;3.67;;;3.40;;
59233;SDS011;60776;51.702;7.462;2023-09-07T12:44:26;3.55;;;3.35;;
59233;SDS011;60776;51.702;7.462;2023-09-07T12:46:52;3.10;;;2.90;;
59233;SDS011;60776;51.702;7.462;2023-09-07T12:49:17;6.88;;;3.55;;
59233;SDS011;60776;51.702;7.462;2023-09-07T12:51:45;3.70;;;3.50;;
59233;SDS011;60776;51.702;7.462;2023-09-07T12:54:12;3.53;;;3.08;;
59233;SDS011;60776;51.702;7.462;2023-09-07T12:56:37;3.33;;;3.03;;
59233;SDS011;60776;51.702;7.462;2023-09-07T12:59:10;3.72;;;3.38;;
59233;SDS011;60776;51.702;7.462;2023-09-07T13:01:46;3.30;;;3.00;;
59233;SDS011;60776;51.702;7.462;2023-09-07T13:04:20;3.60;;;3.20;;
59233;SDS011;60776;51.702;7.462;2023-09-07T13:06:45;5.47;;;3.53;;
59233;SDS011;60776;51.702;7.462;2023-09-07T13:09:21;4.45;;;3.10;;
59233;SDS011;60776;51.702;7.462;2023-09-07T13:11:47;5.50;;;3.10;;
59233;SDS011;60776;51.702;7.462;2023-09-07T13:14:12;3.42;;;3.13;;
59233;SDS011;60776;51.702;7.462;2023-09-07T13:16:38;4.47;;;2.85;;
59233;SDS011;60776;51.702;7.462;2023-09-07T13:19:04;3.90;;;3.53;;
59233;SDS011;60776;51.702;7.462;2023-09-07T13:21:39;4.20;;;3.10;;
59233;SDS011;60776;51.702;7.462;2023-09-07T13:24:14;3.42;;;3.10;;
59233;SDS011;60776;51.702;7.462;2023-09-07T13:26:46;3.10;;;2.90;;
59233;SDS011;60776;51.702;7.462;2023-09-07T13:29:19;3.95;;;2.95;;
59233;SDS011;60776;51.702;7.462;2023-09-07T13:31:45;3.38;;;2.80;;
59233;SDS011;60776;51.702;7.462;2023-09-07T13:34:13;3.45;;;3.15;;
59233;SDS011;60776;51.702;7.462;2023-09-07T13:36:50;3.15;;;2.80;;
59233;SDS011;60776;51.702;7.462;2023-09-07T13:39:15;3.72;;;3.15;;
59233;SDS011;60776;51.702;7.462;2023-09-07T13:41:45;5.95;;;2.95;;
59233;SDS011;60776;51.702;7.462;2023-09-07T13:44:13;3.20;;;3.00;;
59233;SDS011;60776;51.702;7.462;2023-09-07T13:46:39;6.55;;;3.13;;
59233;SDS011;60776;51.702;7.462;2023-09-07T13:49:05;4.13;;;3.33;;
59233;SDS011;60776;51.702;7.462;2023-09-07T13:51:30;7.90;;;3.15;;
59233;SDS011;60776;51.702;7.462;2023-09-07T13:54:02;3.10;;;2.80;;
59233;SDS011;60776;51.702;7.462;2023-09-07T13:56:28;3.72;;;3.03;;
59233;SDS011;60776;51.702;7.462;2023-09-07T13:58:54;4.43;;;3.00;;
59233;SDS011;60776;51.702;7.462;2023-09-07T14:01:20;4.68;;;3.40;;
59233;SDS011;60776;51.702;7.462;2023-09-07T14:03:46;3.45;;;3.17;;
59233;SDS011;60776;51.702;7.462;2023-09-07T14:06:14;5.13;;;3.47;;
59233;SDS011;60776;51.702;7.462;2023-09-07T14:08:40;2.97;;;2.78;;
59233;SDS011;60776;51.702;7.462;2023-09-07T14:11:07;3.95;;;3.15;;
59233;SDS011;60776;51.702;7.462;2023-09-07T14:13:34;4.90;;;3.33;;
59233;SDS011;60776;51.702;7.462;2023-09-07T14:16:05;3.60;;;3.30;;
59233;SDS011;60776;51.702;7.462;2023-09-07T14:18:30;3.65;;;3.35;;
59233;SDS011;60776;51.702;7.462;2023-09-07T14:20:56;3.38;;;3.17;;
59233;SDS011;60776;51.702;7.462;2023-09-07T14:23:23;3.45;;;2.90;;
59233;SDS011;60776;51.702;7.462;2023-09-07T14:25:51;3.55;;;3.10;;
59233;SDS011;60776;51.702;7.462;2023-09-07T14:28:19;3.17;;;2.88;;
59233;SDS011;60776;51.702;7.462;2023-09-07T14:30:45;5.03;;;3.10;;
59233;SDS011;60776;51.702;7.462;2023-09-07T14:33:13;4.10;;;2.90;;
59233;SDS011;60776;51.702;7.462;2023-09-07T14:35:39;4.18;;;3.17;;
59233;SDS011;60776;51.702;7.462;2023-09-07T14:38:08;5.70;;;3.50;;
59233;SDS011;60776;51.702;7.462;2023-09-07T14:40:33;3.08;;;2.88;;
59233;SDS011;60776;51.702;7.462;2023-09-07T14:42:59;6.75;;;3.13;;
59233;SDS011;60776;51.702;7.462;2023-09-07T14:45:24;4.93;;;3.35;;
59233;SDS011;60776;51.702;7.462;2023-09-07T14:47:52;3.20;;;2.90;;
59233;SDS011;60776;51.702;7.462;2023-09-07T14:50:18;3.72;;;3.10;;
59233;SDS011;60776;51.702;7.462;2023-09-07T14:52:47;3.58;;;3.28;;